sensor_id;sensor_type;location;lat;lon;timestamp;P1;durP1;ratioP1;P2;durP2;ratioP2
16543;SDS011;8384;47.996;7.786;2023-03-14T00:01:18;1.10;;;0.50;;
16543;SDS011;8384;47.996;7.786;2023-03-14T00:03:47;0.60;;;0.40;;
16543;SDS011;8384;47.996;7.786;2023-03-14T00:06:13;1.20;;;0.40;;
16543;SDS011;8384;47.996;7.786;2023-03-14T00:08:39;0.75;;;0.50;;
16543;SDS011;8384;47.996;7.786;2023-03-14T00:11:07;0.67;;;0.50;;
16543;SDS011;8384;47.996;7.786;2023-03-14T00:13:33;1.05;;;0.50;;
16543;SDS011;8384;47.996;7.786;2023-03-14T00:16:03;0.90;;;0.40;;
16543;SDS011;8384;47.996;7.786;2023-03-14T00:18:33;0.87;;;0.50;;
16543;SDS011;8384;47.996;7.786;2023-03-14T00:20:59;0.95;;;0.30;;
16543;SDS011;8384;47.996;7.786;2023-03-14T00:23:26;0.70;;;0.37;;
16543;SDS011;8384;47.996;7.786;2023-03-14T00:25:52;0.57;;;0.40;;
16543;SDS011;8384;47.996;7.786;2023-03-14T00:28:18;0.60;;;0.30;;
16543;SDS011;8384;47.996;7.786;2023-03-14T00:30:43;0.37;;;0.30;;
16543;SDS011;8384;47.996;7.786;2023-03-14T00:33:08;0.80;;;0.30;;
16543;SDS011;8384;47.996;7.786;2023-03-14T00:35:33;0.93;;;0.60;;
16543;SDS011;8384;47.996;7.786;2023-03-14T00:37:59;0.70;;;0.40;;
16543;SDS011;8384;47.996;7.786;2023-03-14T00:40:24;0.85;;;0.40;;
16543;SDS011;8384;47.996;7.786;2023-03-14T00:42:49;0.80;;;0.33;;
16543;SDS011;8384;47.996;7.786;2023-03-14T00:45:14;0.87;;;0.40;;
16543;SDS011;8384;47.996;7.786;2023-03-14T00:47:40;0.80;;;0.40;;
16543;SDS011;8384;47.996;7.786;2023-03-14T00:50:05;0.50;;;0.40;;
16543;SDS011;8384;47.996;7.786;2023-03-14T00:52:31;0.68;;;0.40;;
16543;SDS011;8384;47.996;7.786;2023-03-14T00:54:56;1.05;;;0.50;;
16543;SDS011;8384;47.996;7.786;2023-03-14T00:57:22;1.17;;;0.50;;
16543;SDS011;8384;47.996;7.786;2023-03-14T00:59:47;0.97;;;0.60;;
16543;SDS011;8384;47.996;7.786;2023-03-14T01:02:12;0.93;;;0.50;;
16543;SDS011;8384;47.996;7.786;2023-03-14T01:04:38;1.10;;;0.60;;
16543;SDS011;8384;47.996;7.786;2023-03-14T01:07:04;1.60;;;0.57;;
16543;SDS011;8384;47.996;7.786;2023-03-14T01:09:29;1.48;;;0.50;;
16543;SDS011;8384;47.996;7.786;2023-03-14T01:11:55;1.70;;;0.52;;
16543;SDS011;8384;47.996;7.786;2023-03-14T01:14:20;1.87;;;0.50;;
16543;SDS011;8384;47.996;7.786;2023-03-14T01:16:45;1.10;;;0.50;;
16543;SDS011;8384;47.996;7.786;2023-03-14T01:19:11;0.80;;;0.50;;
16543;SDS011;8384;47.996;7.786;2023-03-14T01:21:36;1.00;;;0.50;;
16543;SDS011;8384;47.996;7.786;2023-03-14T01:24:02;1.40;;;0.60;;
16543;SDS011;8384;47.996;7.786;2023-03-14T01:26:29;1.70;;;0.65;;
16543;SDS011;8384;47.996;7.786;2023-03-14T01:28:56;2.20;;;0.80;;
16543;SDS011;8384;47.996;7.786;2023-03-14T01:31:22;2.72;;;0.88;;
16543;SDS011;8384;47.996;7.786;2023-03-14T01:33:48;1.60;;;0.80;;
16543;SDS011;8384;47.996;7.786;2023-03-14T01:36:14;2.63;;;0.90;;
16543;SDS011;8384;47.996;7.786;2023-03-14T01:38:40;1.45;;;0.65;;
16543;SDS011;8384;47.996;7.786;2023-03-14T01:41:06;1.50;;;0.60;;
16543;SDS011;8384;47.996;7.786;2023-03-14T01:43:33;1.73;;;0.70;;
16543;SDS011;8384;47.996;7.786;2023-03-14T01:48:40;2.33;;;0.80;;
16543;SDS011;8384;47.996;7.786;2023-03-14T01:51:11;2.25;;;1.05;;
16543;SDS011;8384;47.996;7.786;2023-03-14T01:53:40;3.60;;;0.80;;
16543;SDS011;8384;47.996;7.786;2023-03-14T01:56:08;2.30;;;0.80;;
16543;SDS011;8384;47.996;7.786;2023-03-14T01:58:36;3.15;;;0.98;;
16543;SDS011;8384;47.996;7.786;2023-03-14T02:01:04;2.92;;;0.80;;
16543;SDS011;8384;47.996;7.786;2023-03-14T02:03:34;1.85;;;0.80;;
16543;SDS011;8384;47.996;7.786;2023-03-14T02:06:11;2.72;;;0.90;;
16543;SDS011;8384;47.996;7.786;2023-03-14T02:08:40;2.85;;;0.80;;
16543;SDS011;8384;47.996;7.786;2023-03-14T02:11:06;1.92;;;0.60;;
16543;SDS011;8384;47.996;7.786;2023-03-14T02:13:32;2.05;;;0.73;;
16543;SDS011;8384;47.996;7.786;2023-03-14T02:15:58;2.58;;;0.85;;
16543;SDS011;8384;47.996;7.786;2023-03-14T02:18:23;2.10;;;0.90;;
16543;SDS011;8384;47.996;7.786;2023-03-14T02:26:03;2.33;;;0.90;;
16543;SDS011;8384;47.996;7.786;2023-03-14T02:28:33;1.27;;;0.57;;
16543;SDS011;8384;47.996;7.786;2023-03-14T02:30:59;1.57;;;0.70;;
16543;SDS011;8384;47.996;7.786;2023-03-14T02:33:24;1.70;;;0.70;;
16543;SDS011;8384;47.996;7.786;2023-03-14T02:36:00;2.10;;;0.70;;
16543;SDS011;8384;47.996;7.786;2023-03-14T02:38:37;2.08;;;0.80;;
16543;SDS011;8384;47.996;7.786;2023-03-14T02:41:10;1.40;;;0.70;;
16543;SDS011;8384;47.996;7.786;2023-03-14T02:43:36;1.42;;;0.50;;
16543;SDS011;8384;47.996;7.786;2023-03-14T02:46:01;1.37;;;0.60;;
16543;SDS011;8384;47.996;7.786;2023-03-14T02:48:31;1.20;;;0.57;;
16543;SDS011;8384;47.996;7.786;2023-03-14T02:51:01;2.55;;;0.60;;
16543;SDS011;8384;47.996;7.786;2023-03-14T02:53:27;1.80;;;0.50;;
16543;SDS011;8384;47.996;7.786;2023-03-14T02:55:55;1.48;;;0.45;;
16543;SDS011;8384;47.996;7.786;2023-03-14T02:58:20;1.43;;;0.50;;
16543;SDS011;8384;47.996;7.786;2023-03-14T03:00:46;2.20;;;0.70;;
16543;SDS011;8384;47.996;7.786;2023-03-14T03:03:12;1.40;;;0.63;;
16543;SDS011;8384;47.996;7.786;2023-03-14T03:05:37;2.40;;;0.80;;
16543;SDS011;8384;47.996;7.786;2023-03-14T03:08:03;2.33;;;0.77;;
16543;SDS011;8384;47.996;7.786;2023-03-14T03:10:29;1.88;;;0.93;;
16543;SDS011;8384;47.996;7.786;2023-03-14T03:12:55;1.95;;;0.80;;
16543;SDS011;8384;47.996;7.786;2023-03-14T03:15:20;2.83;;;0.73;;
16543;SDS011;8384;47.996;7.786;2023-03-14T03:17:46;2.10;;;0.70;;
16543;SDS011;8384;47.996;7.786;2023-03-14T03:20:11;3.60;;;0.90;;
16543;SDS011;8384;47.996;7.786;2023-03-14T03:22:37;1.60;;;0.87;;
16543;SDS011;8384;47.996;7.786;2023-03-14T03:25:04;2.33;;;0.90;;
16543;SDS011;8384;47.996;7.786;2023-03-14T03:27:31;2.25;;;0.90;;
16543;SDS011;8384;47.996;7.786;2023-03-14T03:29:57;3.65;;;1.00;;
16543;SDS011;8384;47.996;7.786;2023-03-14T03:32:23;2.70;;;0.90;;
16543;SDS011;8384;47.996;7.786;2023-03-14T03:34:49;2.50;;;0.70;;
16543;SDS011;8384;47.996;7.786;2023-03-14T03:37:14;2.17;;;0.80;;
16543;SDS011;8384;47.996;7.786;2023-03-14T03:39:39;2.15;;;0.77;;
16543;SDS011;8384;47.996;7.786;2023-03-14T03:42:05;3.17;;;0.98;;
16543;SDS011;8384;47.996;7.786;2023-03-14T03:44:30;2.47;;;1.00;;
16543;SDS011;8384;47.996;7.786;2023-03-14T03:46:55;3.47;;;0.80;;
16543;SDS011;8384;47.996;7.786;2023-03-14T03:49:20;5.20;;;1.00;;
16543;SDS011;8384;47.996;7.786;2023-03-14T03:51:46;3.03;;;1.10;;
16543;SDS011;8384;47.996;7.786;2023-03-14T03:54:11;2.70;;;0.90;;
16543;SDS011;8384;47.996;7.786;2023-03-14T03:56:36;3.27;;;0.93;;
16543;SDS011;8384;47.996;7.786;2023-03-14T03:59:02;3.87;;;0.97;;
16543;SDS011;8384;47.996;7.786;2023-03-14T04:01:27;2.03;;;0.60;;
16543;SDS011;8384;47.996;7.786;2023-03-14T04:03:52;3.57;;;0.80;;
16543;SDS011;8384;47.996;7.786;2023-03-14T04:06:17;2.10;;;0.70;;
16543;SDS011;8384;47.996;7.786;2023-03-14T04:08:43;2.27;;;0.80;;
16543;SDS011;8384;47.996;7.786;2023-03-14T04:11:09;2.72;;;0.75;;
16543;SDS011;8384;47.996;7.786;2023-03-14T04:13:34;2.55;;;0.90;;
16543;SDS011;8384;47.996;7.786;2023-03-14T04:15:59;2.33;;;0.80;;
16543;SDS011;8384;47.996;7.786;2023-03-14T04:18:25;1.43;;;0.60;;
16543;SDS011;8384;47.996;7.786;2023-03-14T04:20:51;2.43;;;0.77;;
16543;SDS011;8384;47.996;7.786;2023-03-14T04:23:17;2.17;;;0.60;;
16543;SDS011;8384;47.996;7.786;2023-03-14T04:25:43;1.30;;;0.50;;
16543;SDS011;8384;47.996;7.786;2023-03-14T04:28:08;1.88;;;0.60;;
16543;SDS011;8384;47.996;7.786;2023-03-14T04:30:33;1.90;;;0.60;;
16543;SDS011;8384;47.996;7.786;2023-03-14T04:32:59;1.77;;;0.60;;
16543;SDS011;8384;47.996;7.786;2023-03-14T04:35:24;3.28;;;0.80;;
16543;SDS011;8384;47.996;7.786;2023-03-14T04:37:49;1.80;;;0.60;;
16543;SDS011;8384;47.996;7.786;2023-03-14T04:40:16;1.37;;;0.50;;
16543;SDS011;8384;47.996;7.786;2023-03-14T04:42:42;1.30;;;0.60;;
16543;SDS011;8384;47.996;7.786;2023-03-14T04:45:08;2.07;;;0.60;;
16543;SDS011;8384;47.996;7.786;2023-03-14T04:47:33;1.23;;;0.60;;
16543;SDS011;8384;47.996;7.786;2023-03-14T04:49:59;1.38;;;0.68;;
16543;SDS011;8384;47.996;7.786;2023-03-14T04:52:24;1.43;;;0.40;;
16543;SDS011;8384;47.996;7.786;2023-03-14T04:54:49;1.55;;;0.60;;
16543;SDS011;8384;47.996;7.786;2023-03-14T04:57:15;2.30;;;0.55;;
16543;SDS011;8384;47.996;7.786;2023-03-14T04:59:40;1.30;;;0.50;;
16543;SDS011;8384;47.996;7.786;2023-03-14T05:02:05;1.23;;;0.50;;
16543;SDS011;8384;47.996;7.786;2023-03-14T05:04:31;1.75;;;0.50;;
16543;SDS011;8384;47.996;7.786;2023-03-14T05:06:57;2.30;;;0.50;;
16543;SDS011;8384;47.996;7.786;2023-03-14T05:09:23;0.80;;;0.30;;
16543;SDS011;8384;47.996;7.786;2023-03-14T05:11:48;1.53;;;0.50;;
16543;SDS011;8384;47.996;7.786;2023-03-14T05:14:13;1.53;;;0.50;;
16543;SDS011;8384;47.996;7.786;2023-03-14T05:16:39;1.47;;;0.40;;
16543;SDS011;8384;47.996;7.786;2023-03-14T05:19:04;0.70;;;0.40;;
16543;SDS011;8384;47.996;7.786;2023-03-14T05:21:29;1.40;;;0.50;;
16543;SDS011;8384;47.996;7.786;2023-03-14T05:23:54;1.27;;;0.50;;
16543;SDS011;8384;47.996;7.786;2023-03-14T05:26:20;1.93;;;0.50;;
16543;SDS011;8384;47.996;7.786;2023-03-14T05:28:45;0.93;;;0.40;;
16543;SDS011;8384;47.996;7.786;2023-03-14T05:31:10;1.40;;;0.50;;
16543;SDS011;8384;47.996;7.786;2023-03-14T05:33:36;0.80;;;0.40;;
16543;SDS011;8384;47.996;7.786;2023-03-14T05:36:01;1.35;;;0.50;;
16543;SDS011;8384;47.996;7.786;2023-03-14T05:38:26;0.82;;;0.45;;
16543;SDS011;8384;47.996;7.786;2023-03-14T05:40:51;1.40;;;0.47;;
16543;SDS011;8384;47.996;7.786;2023-03-14T05:43:17;1.45;;;0.40;;
16543;SDS011;8384;47.996;7.786;2023-03-14T05:45:42;0.87;;;0.40;;
16543;SDS011;8384;47.996;7.786;2023-03-14T05:48:08;0.97;;;0.37;;
16543;SDS011;8384;47.996;7.786;2023-03-14T05:50:34;1.40;;;0.47;;
16543;SDS011;8384;47.996;7.786;2023-03-14T05:53:00;1.08;;;0.40;;
16543;SDS011;8384;47.996;7.786;2023-03-14T05:55:26;0.60;;;0.47;;
16543;SDS011;8384;47.996;7.786;2023-03-14T05:57:52;1.47;;;0.50;;
16543;SDS011;8384;47.996;7.786;2023-03-14T06:00:18;0.50;;;0.20;;
16543;SDS011;8384;47.996;7.786;2023-03-14T06:02:44;1.27;;;0.50;;
16543;SDS011;8384;47.996;7.786;2023-03-14T06:05:09;1.33;;;0.40;;
16543;SDS011;8384;47.996;7.786;2023-03-14T06:07:35;0.88;;;0.30;;
16543;SDS011;8384;47.996;7.786;2023-03-14T06:10:01;1.20;;;0.40;;
16543;SDS011;8384;47.996;7.786;2023-03-14T06:12:27;0.70;;;0.40;;
16543;SDS011;8384;47.996;7.786;2023-03-14T06:14:53;1.20;;;0.50;;
16543;SDS011;8384;47.996;7.786;2023-03-14T06:17:19;2.07;;;0.60;;
16543;SDS011;8384;47.996;7.786;2023-03-14T06:19:44;1.40;;;0.40;;
16543;SDS011;8384;47.996;7.786;2023-03-14T06:22:09;0.90;;;0.27;;
16543;SDS011;8384;47.996;7.786;2023-03-14T06:24:34;0.95;;;0.38;;
16543;SDS011;8384;47.996;7.786;2023-03-14T06:27:00;0.40;;;0.30;;
16543;SDS011;8384;47.996;7.786;2023-03-14T06:29:27;1.47;;;0.50;;
16543;SDS011;8384;47.996;7.786;2023-03-14T06:31:52;0.47;;;0.30;;
16543;SDS011;8384;47.996;7.786;2023-03-14T06:34:17;0.83;;;0.30;;
16543;SDS011;8384;47.996;7.786;2023-03-14T06:36:43;1.70;;;0.33;;
16543;SDS011;8384;47.996;7.786;2023-03-14T06:39:08;0.90;;;0.40;;
16543;SDS011;8384;47.996;7.786;2023-03-14T06:41:33;0.80;;;0.30;;
16543;SDS011;8384;47.996;7.786;2023-03-14T06:43:58;0.80;;;0.40;;
16543;SDS011;8384;47.996;7.786;2023-03-14T06:46:24;0.87;;;0.40;;
16543;SDS011;8384;47.996;7.786;2023-03-14T06:48:49;0.93;;;0.50;;
16543;SDS011;8384;47.996;7.786;2023-03-14T06:51:14;1.37;;;0.47;;
16543;SDS011;8384;47.996;7.786;2023-03-14T06:53:40;0.80;;;0.30;;
16543;SDS011;8384;47.996;7.786;2023-03-14T06:56:05;0.88;;;0.30;;
16543;SDS011;8384;47.996;7.786;2023-03-14T06:58:31;0.85;;;0.50;;
16543;SDS011;8384;47.996;7.786;2023-03-14T07:00:56;1.50;;;0.30;;
16543;SDS011;8384;47.996;7.786;2023-03-14T07:03:22;0.93;;;0.30;;
16543;SDS011;8384;47.996;7.786;2023-03-14T07:05:47;0.75;;;0.40;;
16543;SDS011;8384;47.996;7.786;2023-03-14T07:08:13;1.02;;;0.38;;
16543;SDS011;8384;47.996;7.786;2023-03-14T07:10:38;0.50;;;0.30;;
16543;SDS011;8384;47.996;7.786;2023-03-14T07:13:03;0.73;;;0.40;;
16543;SDS011;8384;47.996;7.786;2023-03-14T07:15:28;1.03;;;0.37;;
16543;SDS011;8384;47.996;7.786;2023-03-14T07:17:54;0.57;;;0.40;;
16543;SDS011;8384;47.996;7.786;2023-03-14T07:20:19;0.70;;;0.40;;
16543;SDS011;8384;47.996;7.786;2023-03-14T07:22:47;0.90;;;0.37;;
16543;SDS011;8384;47.996;7.786;2023-03-14T07:25:15;1.10;;;0.43;;
16543;SDS011;8384;47.996;7.786;2023-03-14T07:27:45;0.88;;;0.40;;
16543;SDS011;8384;47.996;7.786;2023-03-14T07:30:11;1.40;;;0.38;;
16543;SDS011;8384;47.996;7.786;2023-03-14T07:32:37;1.13;;;0.50;;
16543;SDS011;8384;47.996;7.786;2023-03-14T07:35:02;1.20;;;0.40;;
16543;SDS011;8384;47.996;7.786;2023-03-14T07:37:28;0.93;;;0.40;;
16543;SDS011;8384;47.996;7.786;2023-03-14T07:39:53;0.50;;;0.30;;
16543;SDS011;8384;47.996;7.786;2023-03-14T07:42:18;2.10;;;0.60;;
16543;SDS011;8384;47.996;7.786;2023-03-14T07:44:44;1.60;;;0.40;;
16543;SDS011;8384;47.996;7.786;2023-03-14T07:47:09;0.40;;;0.30;;
16543;SDS011;8384;47.996;7.786;2023-03-14T07:49:34;2.07;;;0.50;;
16543;SDS011;8384;47.996;7.786;2023-03-14T07:51:59;0.73;;;0.40;;
16543;SDS011;8384;47.996;7.786;2023-03-14T07:54:25;0.80;;;0.40;;
16543;SDS011;8384;47.996;7.786;2023-03-14T07:56:50;0.68;;;0.32;;
16543;SDS011;8384;47.996;7.786;2023-03-14T07:59:17;1.10;;;0.45;;
16543;SDS011;8384;47.996;7.786;2023-03-14T08:01:42;1.30;;;0.47;;
16543;SDS011;8384;47.996;7.786;2023-03-14T08:04:08;0.80;;;0.60;;
16543;SDS011;8384;47.996;7.786;2023-03-14T08:06:34;1.08;;;0.55;;
16543;SDS011;8384;47.996;7.786;2023-03-14T08:09:00;0.95;;;0.50;;
16543;SDS011;8384;47.996;7.786;2023-03-14T08:11:25;0.90;;;0.40;;
16543;SDS011;8384;47.996;7.786;2023-03-14T08:13:51;1.10;;;0.50;;
16543;SDS011;8384;47.996;7.786;2023-03-14T08:16:16;1.23;;;0.40;;
16543;SDS011;8384;47.996;7.786;2023-03-14T08:18:42;1.37;;;0.50;;
16543;SDS011;8384;47.996;7.786;2023-03-14T08:21:08;1.30;;;0.50;;
16543;SDS011;8384;47.996;7.786;2023-03-14T08:23:33;1.07;;;0.50;;
16543;SDS011;8384;47.996;7.786;2023-03-14T08:25:58;1.02;;;0.43;;
16543;SDS011;8384;47.996;7.786;2023-03-14T08:28:23;1.30;;;0.40;;
16543;SDS011;8384;47.996;7.786;2023-03-14T08:30:49;0.90;;;0.50;;
16543;SDS011;8384;47.996;7.786;2023-03-14T08:33:14;1.60;;;0.40;;
16543;SDS011;8384;47.996;7.786;2023-03-14T08:35:39;0.90;;;0.50;;
16543;SDS011;8384;47.996;7.786;2023-03-14T08:38:04;1.80;;;0.60;;
16543;SDS011;8384;47.996;7.786;2023-03-14T08:40:30;1.30;;;0.50;;
16543;SDS011;8384;47.996;7.786;2023-03-14T08:42:55;0.70;;;0.50;;
16543;SDS011;8384;47.996;7.786;2023-03-14T08:45:20;1.23;;;0.60;;
16543;SDS011;8384;47.996;7.786;2023-03-14T08:47:46;1.13;;;0.50;;
16543;SDS011;8384;47.996;7.786;2023-03-14T08:50:12;1.00;;;0.40;;
16543;SDS011;8384;47.996;7.786;2023-03-14T08:52:38;0.93;;;0.50;;
16543;SDS011;8384;47.996;7.786;2023-03-14T08:55:05;0.85;;;0.40;;
16543;SDS011;8384;47.996;7.786;2023-03-14T08:57:32;1.10;;;0.70;;
16543;SDS011;8384;47.996;7.786;2023-03-14T08:59:57;0.90;;;0.55;;
16543;SDS011;8384;47.996;7.786;2023-03-14T09:02:23;1.90;;;0.60;;
16543;SDS011;8384;47.996;7.786;2023-03-14T09:04:50;1.10;;;0.53;;
16543;SDS011;8384;47.996;7.786;2023-03-14T09:07:16;1.10;;;0.50;;
16543;SDS011;8384;47.996;7.786;2023-03-14T09:09:41;0.60;;;0.40;;
16543;SDS011;8384;47.996;7.786;2023-03-14T09:12:06;0.80;;;0.43;;
16543;SDS011;8384;47.996;7.786;2023-03-14T09:14:32;1.10;;;0.40;;
16543;SDS011;8384;47.996;7.786;2023-03-14T09:16:57;1.00;;;0.30;;
16543;SDS011;8384;47.996;7.786;2023-03-14T09:19:23;1.20;;;0.33;;
16543;SDS011;8384;47.996;7.786;2023-03-14T09:21:48;0.73;;;0.30;;
16543;SDS011;8384;47.996;7.786;2023-03-14T09:24:14;0.50;;;0.30;;
16543;SDS011;8384;47.996;7.786;2023-03-14T09:26:39;0.90;;;0.40;;
16543;SDS011;8384;47.996;7.786;2023-03-14T09:29:05;0.40;;;0.30;;
16543;SDS011;8384;47.996;7.786;2023-03-14T09:31:30;0.40;;;0.23;;
16543;SDS011;8384;47.996;7.786;2023-03-14T09:33:55;0.43;;;0.20;;
16543;SDS011;8384;47.996;7.786;2023-03-14T09:36:21;0.80;;;0.20;;
16543;SDS011;8384;47.996;7.786;2023-03-14T09:38:46;1.80;;;0.30;;
16543;SDS011;8384;47.996;7.786;2023-03-14T09:41:16;0.37;;;0.20;;
16543;SDS011;8384;47.996;7.786;2023-03-14T09:43:46;1.20;;;0.20;;
16543;SDS011;8384;47.996;7.786;2023-03-14T09:46:15;1.23;;;0.20;;
16543;SDS011;8384;47.996;7.786;2023-03-14T09:48:41;0.35;;;0.20;;
16543;SDS011;8384;47.996;7.786;2023-03-14T09:51:18;0.47;;;0.20;;
16543;SDS011;8384;47.996;7.786;2023-03-14T09:53:47;0.70;;;0.20;;
16543;SDS011;8384;47.996;7.786;2023-03-14T09:56:18;0.70;;;0.20;;
16543;SDS011;8384;47.996;7.786;2023-03-14T09:58:48;1.08;;;0.20;;
16543;SDS011;8384;47.996;7.786;2023-03-14T10:01:30;1.20;;;0.20;;
16543;SDS011;8384;47.996;7.786;2023-03-14T10:03:58;0.50;;;0.30;;
16543;SDS011;8384;47.996;7.786;2023-03-14T10:06:28;0.13;;;0.13;;
16543;SDS011;8384;47.996;7.786;2023-03-14T10:08:55;0.60;;;0.20;;
16543;SDS011;8384;47.996;7.786;2023-03-14T10:11:22;0.40;;;0.20;;
16543;SDS011;8384;47.996;7.786;2023-03-14T10:14:03;0.70;;;0.20;;
16543;SDS011;8384;47.996;7.786;2023-03-14T10:16:33;0.50;;;0.30;;
16543;SDS011;8384;47.996;7.786;2023-03-14T10:19:07;0.30;;;0.13;;
16543;SDS011;8384;47.996;7.786;2023-03-14T10:21:39;0.50;;;0.20;;
16543;SDS011;8384;47.996;7.786;2023-03-14T10:24:09;0.30;;;0.20;;
16543;SDS011;8384;47.996;7.786;2023-03-14T10:26:54;0.30;;;0.20;;
16543;SDS011;8384;47.996;7.786;2023-03-14T10:29:23;0.70;;;0.30;;
16543;SDS011;8384;47.996;7.786;2023-03-14T10:31:57;0.80;;;0.35;;
16543;SDS011;8384;47.996;7.786;2023-03-14T10:34:32;0.20;;;0.20;;
16543;SDS011;8384;47.996;7.786;2023-03-14T10:37:07;0.45;;;0.10;;
16543;SDS011;8384;47.996;7.786;2023-03-14T10:39:47;0.22;;;0.20;;
16543;SDS011;8384;47.996;7.786;2023-03-14T10:42:19;0.17;;;0.15;;
16543;SDS011;8384;47.996;7.786;2023-03-14T10:44:48;0.45;;;0.20;;
16543;SDS011;8384;47.996;7.786;2023-03-14T10:47:19;0.20;;;0.20;;
16543;SDS011;8384;47.996;7.786;2023-03-14T10:49:48;0.93;;;0.20;;
16543;SDS011;8384;47.996;7.786;2023-03-14T10:54:57;0.50;;;0.20;;
16543;SDS011;8384;47.996;7.786;2023-03-14T10:57:25;0.20;;;0.20;;
16543;SDS011;8384;47.996;7.786;2023-03-14T10:59:50;0.50;;;0.20;;
16543;SDS011;8384;47.996;7.786;2023-03-14T11:07:59;0.35;;;0.25;;
16543;SDS011;8384;47.996;7.786;2023-03-14T11:10:40;0.20;;;0.20;;
16543;SDS011;8384;47.996;7.786;2023-03-14T11:15:53;0.40;;;0.25;;
16543;SDS011;8384;47.996;7.786;2023-03-14T11:32:46;1.33;;;0.50;;
16543;SDS011;8384;47.996;7.786;2023-03-14T11:40:32;0.80;;;0.30;;
16543;SDS011;8384;47.996;7.786;2023-03-14T11:43:02;0.55;;;0.30;;
16543;SDS011;8384;47.996;7.786;2023-03-14T11:45:35;0.55;;;0.40;;
16543;SDS011;8384;47.996;7.786;2023-03-14T11:48:14;0.85;;;0.35;;
16543;SDS011;8384;47.996;7.786;2023-03-14T11:50:54;0.77;;;0.50;;
16543;SDS011;8384;47.996;7.786;2023-03-14T11:53:28;0.93;;;0.40;;
16543;SDS011;8384;47.996;7.786;2023-03-14T11:56:01;1.00;;;0.40;;
16543;SDS011;8384;47.996;7.786;2023-03-14T11:58:29;0.95;;;0.40;;
16543;SDS011;8384;47.996;7.786;2023-03-14T12:00:56;1.00;;;0.30;;
16543;SDS011;8384;47.996;7.786;2023-03-14T12:06:19;0.82;;;0.47;;
16543;SDS011;8384;47.996;7.786;2023-03-14T12:08:54;1.08;;;0.40;;
16543;SDS011;8384;47.996;7.786;2023-03-14T12:11:47;0.90;;;0.40;;
16543;SDS011;8384;47.996;7.786;2023-03-14T12:14:29;0.65;;;0.40;;
16543;SDS011;8384;47.996;7.786;2023-03-14T12:16:58;0.70;;;0.40;;
16543;SDS011;8384;47.996;7.786;2023-03-14T12:19:33;0.57;;;0.30;;
16543;SDS011;8384;47.996;7.786;2023-03-14T12:24:36;0.95;;;0.50;;
16543;SDS011;8384;47.996;7.786;2023-03-14T12:27:04;1.13;;;0.40;;
16543;SDS011;8384;47.996;7.786;2023-03-14T12:29:33;0.60;;;0.40;;
16543;SDS011;8384;47.996;7.786;2023-03-14T12:32:24;0.88;;;0.47;;
16543;SDS011;8384;47.996;7.786;2023-03-14T12:34:50;1.13;;;0.40;;
16543;SDS011;8384;47.996;7.786;2023-03-14T12:40:10;0.63;;;0.40;;
16543;SDS011;8384;47.996;7.786;2023-03-14T12:42:51;1.40;;;0.70;;
16543;SDS011;8384;47.996;7.786;2023-03-14T12:48:06;0.60;;;0.40;;
16543;SDS011;8384;47.996;7.786;2023-03-14T12:50:36;0.52;;;0.40;;
16543;SDS011;8384;47.996;7.786;2023-03-14T13:00:59;0.90;;;0.43;;
16543;SDS011;8384;47.996;7.786;2023-03-14T13:03:36;0.68;;;0.30;;
16543;SDS011;8384;47.996;7.786;2023-03-14T13:06:09;1.30;;;0.40;;
16543;SDS011;8384;47.996;7.786;2023-03-14T13:08:41;0.70;;;0.30;;
16543;SDS011;8384;47.996;7.786;2023-03-14T13:11:08;1.05;;;0.45;;
16543;SDS011;8384;47.996;7.786;2023-03-14T13:13:37;0.88;;;0.45;;
16543;SDS011;8384;47.996;7.786;2023-03-14T13:16:10;0.65;;;0.40;;
16543;SDS011;8384;47.996;7.786;2023-03-14T13:18:48;0.80;;;0.50;;
16543;SDS011;8384;47.996;7.786;2023-03-14T13:21:20;1.15;;;0.50;;
16543;SDS011;8384;47.996;7.786;2023-03-14T13:23:54;1.40;;;0.47;;
16543;SDS011;8384;47.996;7.786;2023-03-14T13:26:32;0.80;;;0.40;;
16543;SDS011;8384;47.996;7.786;2023-03-14T13:31:52;0.85;;;0.47;;
16543;SDS011;8384;47.996;7.786;2023-03-14T13:34:19;0.80;;;0.33;;
16543;SDS011;8384;47.996;7.786;2023-03-14T13:36:45;1.70;;;0.60;;
16543;SDS011;8384;47.996;7.786;2023-03-14T13:39:16;1.17;;;0.50;;
16543;SDS011;8384;47.996;7.786;2023-03-14T13:41:43;1.30;;;0.60;;
16543;SDS011;8384;47.996;7.786;2023-03-14T13:44:13;1.20;;;0.50;;
16543;SDS011;8384;47.996;7.786;2023-03-14T13:46:42;0.93;;;0.55;;
16543;SDS011;8384;47.996;7.786;2023-03-14T13:49:12;1.50;;;0.50;;
16543;SDS011;8384;47.996;7.786;2023-03-14T13:51:46;1.10;;;0.40;;
16543;SDS011;8384;47.996;7.786;2023-03-14T13:54:13;2.37;;;0.70;;
16543;SDS011;8384;47.996;7.786;2023-03-14T13:56:43;1.10;;;0.50;;
16543;SDS011;8384;47.996;7.786;2023-03-14T13:59:28;1.70;;;0.60;;
16543;SDS011;8384;47.996;7.786;2023-03-14T14:01:55;1.48;;;0.60;;
16543;SDS011;8384;47.996;7.786;2023-03-14T14:04:23;1.88;;;0.60;;
16543;SDS011;8384;47.996;7.786;2023-03-14T14:06:55;1.70;;;0.70;;
16543;SDS011;8384;47.996;7.786;2023-03-14T14:09:24;2.00;;;0.70;;
16543;SDS011;8384;47.996;7.786;2023-03-14T14:14:32;2.78;;;0.70;;
16543;SDS011;8384;47.996;7.786;2023-03-14T14:17:03;1.65;;;0.70;;
16543;SDS011;8384;47.996;7.786;2023-03-14T14:19:32;2.78;;;0.80;;
16543;SDS011;8384;47.996;7.786;2023-03-14T14:22:00;2.17;;;0.82;;
16543;SDS011;8384;47.996;7.786;2023-03-14T14:24:28;2.35;;;0.90;;
16543;SDS011;8384;47.996;7.786;2023-03-14T14:27:39;2.80;;;1.00;;
16543;SDS011;8384;47.996;7.786;2023-03-14T14:30:00;1.83;;;0.70;;
16543;SDS011;8384;47.996;7.786;2023-03-14T14:32:38;1.85;;;0.70;;
16543;SDS011;8384;47.996;7.786;2023-03-14T14:35:05;1.95;;;0.90;;
16543;SDS011;8384;47.996;7.786;2023-03-14T14:37:32;1.67;;;0.82;;
16543;SDS011;8384;47.996;7.786;2023-03-14T14:43:01;2.45;;;0.98;;
16543;SDS011;8384;47.996;7.786;2023-03-14T14:45:28;2.33;;;0.90;;
16543;SDS011;8384;47.996;7.786;2023-03-14T14:47:55;1.80;;;0.80;;
16543;SDS011;8384;47.996;7.786;2023-03-14T14:52:59;2.65;;;0.85;;
16543;SDS011;8384;47.996;7.786;2023-03-14T14:55:44;2.50;;;0.80;;
16543;SDS011;8384;47.996;7.786;2023-03-14T14:58:26;2.95;;;0.90;;
16543;SDS011;8384;47.996;7.786;2023-03-14T15:00:55;2.30;;;0.93;;
16543;SDS011;8384;47.996;7.786;2023-03-14T15:03:30;2.20;;;0.90;;
16543;SDS011;8384;47.996;7.786;2023-03-14T15:05:56;2.47;;;1.05;;
16543;SDS011;8384;47.996;7.786;2023-03-14T15:08:22;2.38;;;0.93;;
16543;SDS011;8384;47.996;7.786;2023-03-14T15:10:49;2.13;;;0.88;;
16543;SDS011;8384;47.996;7.786;2023-03-14T15:13:14;2.72;;;0.90;;
16543;SDS011;8384;47.996;7.786;2023-03-14T15:15:40;2.42;;;0.90;;
16543;SDS011;8384;47.996;7.786;2023-03-14T15:18:13;2.92;;;1.08;;
16543;SDS011;8384;47.996;7.786;2023-03-14T15:20:42;2.90;;;0.98;;
16543;SDS011;8384;47.996;7.786;2023-03-14T15:23:11;2.17;;;0.90;;
16543;SDS011;8384;47.996;7.786;2023-03-14T15:25:38;3.13;;;1.00;;
16543;SDS011;8384;47.996;7.786;2023-03-14T15:28:08;2.60;;;1.07;;
16543;SDS011;8384;47.996;7.786;2023-03-14T15:30:39;2.17;;;0.90;;
16543;SDS011;8384;47.996;7.786;2023-03-14T15:33:05;2.80;;;1.00;;
16543;SDS011;8384;47.996;7.786;2023-03-14T15:35:34;1.73;;;0.73;;
16543;SDS011;8384;47.996;7.786;2023-03-14T15:38:02;3.65;;;1.00;;
16543;SDS011;8384;47.996;7.786;2023-03-14T15:40:28;1.60;;;0.80;;
16543;SDS011;8384;47.996;7.786;2023-03-14T15:42:54;2.97;;;1.00;;
16543;SDS011;8384;47.996;7.786;2023-03-14T15:45:19;2.78;;;1.00;;
16543;SDS011;8384;47.996;7.786;2023-03-14T15:47:44;1.80;;;0.82;;
16543;SDS011;8384;47.996;7.786;2023-03-14T15:50:09;2.57;;;1.10;;
16543;SDS011;8384;47.996;7.786;2023-03-14T15:52:36;2.35;;;0.70;;
16543;SDS011;8384;47.996;7.786;2023-03-14T15:55:01;3.00;;;0.87;;
16543;SDS011;8384;47.996;7.786;2023-03-14T15:57:26;1.80;;;0.70;;
16543;SDS011;8384;47.996;7.786;2023-03-14T15:59:52;2.20;;;0.90;;
16543;SDS011;8384;47.996;7.786;2023-03-14T16:02:17;1.67;;;0.80;;
16543;SDS011;8384;47.996;7.786;2023-03-14T16:04:42;2.47;;;0.80;;
16543;SDS011;8384;47.996;7.786;2023-03-14T16:07:08;3.00;;;0.90;;
16543;SDS011;8384;47.996;7.786;2023-03-14T16:09:34;2.13;;;0.90;;
16543;SDS011;8384;47.996;7.786;2023-03-14T16:11:59;2.80;;;1.08;;